Time;durP1;ratioP1;P1;durP2;ratioP2;P2;SDS_P1;SDS_P2;PMS_P1;PMS_P2;Temp;Humidity;BMP_temperature;BMP_pressure;BME280_temperature;BME280_humidity;BME280_pressure;Samples;Min_cycle;Max_cycle;Signal;HPM_P1;HPM_P2
2023/04/26 00:00:17;;;;;;;16.52;9.00;;;;;;;11.40;77.07;94325.75;5065812;28;20064;-81
2023/04/26 00:02:43;;;;;;;15.30;9.85;;;;;;;11.22;77.03;94311.53;5070669;28;20119;-80
2023/04/26 00:05:08;;;;;;;16.73;10.02;;;;;;;11.06;77.26;94286.38;5072123;28;20089;-80
2023/04/26 00:07:34;;;;;;;14.50;9.50;;;;;;;10.68;77.64;94219.53;5052372;28;20547;-80
2023/04/26 00:10:00;;;;;;;15.90;9.10;;;;;;;11.08;77.65;94294.06;5070553;28;20048;-80
2023/04/26 00:12:25;;;;;;;13.25;8.82;;;;;;;10.63;78.02;94227.59;5062745;28;20033;-80
2023/04/26 00:14:51;;;;;;;17.45;9.68;;;;;;;10.86;77.95;94260.28;5067200;28;20048;-81
2023/04/26 00:17:17;;;;;;;13.57;9.88;;;;;;;11.18;78.45;94297.28;5052268;28;20436;-80
2023/04/26 00:19:42;;;;;;;15.93;10.35;;;;;;;10.92;78.24;94267.06;5056496;28;20540;-80
2023/04/26 00:22:08;;;;;;;17.15;10.50;;;;;;;11.02;78.22;94271.38;5049983;28;20173;-80
2023/04/26 00:24:33;;;;;;;18.27;10.02;;;;;;;11.09;77.87;94299.06;5050651;28;20020;-80
2023/04/26 00:27:00;;;;;;;15.75;10.15;;;;;;;10.69;78.26;94242.31;5050091;28;20400;-81
2023/04/26 00:29:26;;;;;;;16.38;11.30;;;;;;;11.02;78.20;94296.03;5064000;28;20089;-80
2023/04/26 00:31:51;;;;;;;16.48;10.68;;;;;;;10.75;78.07;94261.59;5069822;28;20028;-80
2023/04/26 00:34:17;;;;;;;17.98;11.15;;;;;;;10.81;78.29;94263.84;5071198;28;20032;-80
2023/04/26 00:36:42;;;;;;;17.75;11.55;;;;;;;10.85;77.70;94290.53;5053876;28;20025;-81
2023/04/26 00:39:09;;;;;;;16.95;11.18;;;;;;;9.68;77.67;94107.31;5033814;28;20828;-81
2023/04/26 00:41:34;;;;;;;19.60;12.02;;;;;;;10.48;79.05;94232.44;5049347;28;20116;-80
2023/04/26 00:44:00;;;;;;;18.00;11.18;;;;;;;9.94;79.22;94152.59;5049504;28;20128;-80
2023/04/26 00:46:27;;;;;;;18.40;12.05;;;;;;;10.17;78.97;94185.31;5050022;28;20041;-80
2023/04/26 00:48:53;;;;;;;18.42;11.48;;;;;;;10.66;78.45;94261.50;5053314;28;20050;-80
2023/04/26 00:51:19;;;;;;;20.02;10.70;;;;;;;10.76;78.26;94281.69;5069961;28;20044;-80
2023/04/26 00:53:45;;;;;;;16.67;11.48;;;;;;;10.74;79.01;94286.53;5055189;28;20021;-80
2023/04/26 00:56:11;;;;;;;21.15;11.60;;;;;;;10.73;78.59;94287.63;5057484;28;20025;-81
2023/04/26 00:58:37;;;;;;;18.00;12.18;;;;;;;10.69;79.74;94287.41;5060933;28;20419;-80
2023/04/26 01:01:03;;;;;;;19.27;12.73;;;;;;;10.50;79.25;94252.28;5049467;28;20025;-81
2023/04/26 01:03:29;;;;;;;16.58;11.40;;;;;;;9.86;79.54;94160.44;5049033;28;20041;-80
2023/04/26 01:05:55;;;;;;;19.13;12.20;;;;;;;10.11;79.07;94199.72;5062112;28;20032;-80
2023/04/26 01:08:21;;;;;;;18.67;12.77;;;;;;;10.56;78.90;94269.63;5068799;28;20047;-80
2023/04/26 01:10:51;;;;;;;16.75;11.75;;;;;;;10.32;78.86;94230.06;5069307;28;20047;-80
2023/04/26 01:13:17;;;;;;;18.90;12.13;;;;;;;10.31;78.83;94235.66;5055142;28;20048;-80
2023/04/26 01:15:45;;;;;;;22.33;12.75;;;;;;;10.63;78.25;94293.09;5067257;28;20384;-80
2023/04/26 01:18:11;;;;;;;16.02;11.10;;;;;;;10.37;78.07;94261.81;5049315;28;20524;-80
2023/04/26 01:20:36;;;;;;;19.85;11.95;;;;;;;10.12;78.35;94233.06;5050987;28;20036;-80
2023/04/26 01:23:02;;;;;;;21.92;11.82;;;;;;;10.34;78.57;94272.97;5054733;28;20035;-80
2023/04/26 01:25:28;;;;;;;21.23;12.23;;;;;;;9.88;78.71;94206.75;5068870;28;20032;-80
2023/04/26 01:27:53;;;;;;;19.58;11.38;;;;;;;10.37;79.05;94259.16;5069559;28;20102;-80
2023/04/26 01:30:19;;;;;;;21.00;11.75;;;;;;;10.37;78.56;94259.16;5070480;28;20068;-80
2023/04/26 01:32:45;;;;;;;19.83;11.88;;;;;;;10.36;78.13;94260.22;5070610;28;20098;-80
2023/04/26 01:35:10;;;;;;;17.65;12.77;;;;;;;10.21;77.97;94244.59;5056055;28;20037;-80
2023/04/26 01:37:37;;;;;;;20.90;12.77;;;;;;;10.28;78.09;94255.59;5048901;28;20087;-80
2023/04/26 01:40:06;;;;;;;19.05;12.55;;;;;;;10.40;78.81;94276.31;5064693;28;20039;-78
2023/04/26 01:42:31;;;;;;;20.05;12.60;;;;;;;10.07;77.98;94220.69;5071088;28;20051;-78
2023/04/26 01:44:57;;;;;;;23.00;12.55;;;;;;;10.31;78.66;94278.84;5071382;28;20495;-77
2023/04/26 01:47:23;;;;;;;19.77;12.32;;;;;;;10.09;78.54;94238.94;5054378;28;20055;-78
2023/04/26 01:49:49;;;;;;;22.58;13.45;;;;;;;10.06;78.78;94269.47;5072513;28;20052;-77
2023/04/26 01:52:14;;;;;;;22.38;14.00;;;;;;;9.66;78.93;94276.22;5072489;28;20518;-77
2023/04/26 01:54:40;;;;;;;23.48;13.80;;;;;;;9.39;79.47;94204.66;5072086;28;20430;-78
2023/04/26 01:57:05;;;;;;;22.90;14.07;;;;;;;10.10;79.83;94290.84;5069109;28;20108;-77
2023/04/26 01:59:31;;;;;;;24.30;13.90;;;;;;;9.75;79.83;94227.91;5054342;28;20037;-77
2023/04/26 02:01:56;;;;;;;25.98;14.45;;;;;;;10.20;79.76;94295.22;5053010;28;20028;-77
2023/04/26 02:04:23;;;;;;;30.80;14.73;;;;;;;10.14;79.60;94270.66;5051844;28;20037;-77
2023/04/26 02:06:48;;;;;;;22.73;14.57;;;;;;;9.86;79.69;94219.50;5051402;28;20306;-77
2023/04/26 02:09:14;;;;;;;25.95;14.27;;;;;;;10.25;80.05;94279.25;5051807;28;20045;-77
2023/04/26 02:11:40;;;;;;;27.75;14.63;;;;;;;10.25;80.10;94274.72;5053664;28;20045;-77
2023/04/26 02:14:05;;;;;;;28.33;15.80;;;;;;;9.87;79.39;94210.47;5066475;28;20620;-77
2023/04/26 02:16:31;;;;;;;25.52;16.20;;;;;;;9.67;78.74;94197.59;5059403;28;20029;-78
2023/04/26 02:18:58;;;;;;;24.58;15.98;;;;;;;10.06;79.01;94240.34;5052401;28;20506;-78
2023/04/26 02:21:23;;;;;;;25.90;14.85;;;;;;;9.98;79.49;94224.34;5071013;28;20029;-77
2023/04/26 02:23:49;;;;;;;24.75;15.00;;;;;;;10.22;79.19;94256.75;5071952;28;20039;-78
2023/04/26 02:26:15;;;;;;;23.02;14.45;;;;;;;10.21;79.42;94259.72;5070999;28;20037;-78
2023/04/26 02:28:43;;;;;;;27.05;15.85;;;;;;;10.14;79.58;94261.94;5054375;28;20101;-77
2023/04/26 02:31:08;;;;;;;25.45;15.52;;;;;;;9.72;79.43;94197.50;5073562;28;20028;-78
2023/04/26 02:33:34;;;;;;;24.55;14.27;;;;;;;9.87;78.91;94226.38;5069056;28;20028;-77
2023/04/26 02:36:06;;;;;;;28.70;15.65;;;;;;;9.95;79.21;94238.94;5051965;28;20105;-77
2023/04/26 02:38:35;;;;;;;22.75;14.35;;;;;;;9.99;78.94;94258.44;5052029;28;20029;-77
2023/04/26 02:41:02;;;;;;;26.50;16.10;;;;;;;9.69;79.08;94216.59;5053892;28;20021;-77
2023/04/26 02:43:28;;;;;;;25.40;15.13;;;;;;;10.10;79.07;94282.13;5063544;28;20033;-77
2023/04/26 02:45:53;;;;;;;27.52;14.63;;;;;;;9.79;79.41;94232.31;5059378;28;20561;-77
2023/04/26 02:48:19;;;;;;;29.55;16.20;;;;;;;9.83;80.03;94228.03;5064883;28;20041;-77
2023/04/26 02:50:46;;;;;;;27.77;15.13;;;;;;;10.04;80.38;94263.69;5072082;28;20028;-77
2023/04/26 02:53:11;;;;;;;30.58;17.73;;;;;;;9.70;81.38;94207.59;5071294;28;20522;-77
2023/04/26 02:55:38;;;;;;;31.38;16.48;;;;;;;10.08;81.14;94235.50;5071504;28;20024;-77
2023/04/26 02:58:04;;;;;;;34.70;17.40;;;;;;;10.02;80.97;94212.84;5054730;28;20033;-77
2023/04/26 03:00:29;;;;;;;24.45;15.15;;;;;;;9.90;80.34;94185.28;5071537;28;20098;-78
2023/04/26 03:02:55;;;;;;;27.40;14.95;;;;;;;10.21;81.00;94234.00;5070698;28;20402;-78
2023/04/26 03:05:21;;;;;;;14.10;9.80;;;;;;;10.24;80.93;94233.41;5051738;28;20052;-77
2023/04/26 03:07:47;;;;;;;19.45;9.95;;;;;;;10.18;80.66;94229.28;5052631;28;20033;-77
2023/04/26 03:10:12;;;;;;;15.63;8.93;;;;;;;10.38;80.23;94255.38;5051442;28;20045;-77
2023/04/26 03:12:38;;;;;;;19.42;9.45;;;;;;;10.33;79.88;94239.59;5058213;28;20033;-77
2023/04/26 03:15:04;;;;;;;17.88;9.63;;;;;;;10.27;79.59;94226.75;5071911;28;20776;-77
2023/04/26 03:17:29;;;;;;;14.45;8.40;;;;;;;10.38;79.19;94241.34;5074863;28;20495;-77
2023/04/26 03:19:54;;;;;;;19.05;9.45;;;;;;;10.27;79.33;94219.56;5074775;28;20024;-77
2023/04/26 03:22:20;;;;;;;14.63;8.85;;;;;;;10.33;79.41;94230.84;5075161;28;20093;-78
2023/04/26 03:24:46;;;;;;;25.92;8.93;;;;;;;10.21;79.38;94207.50;5063667;28;20571;-77
2023/04/26 03:27:12;;;;;;;20.40;7.50;;;;;;;10.47;79.31;94252.06;5067202;28;20479;-77
2023/04/26 03:29:38;;;;;;;12.55;6.78;;;;;;;10.24;79.39;94208.75;5061380;28;20055;-77
2023/04/26 03:32:04;;;;;;;12.20;5.97;;;;;;;9.77;78.12;94155.03;5063346;28;20052;-78
2023/04/26 03:34:29;;;;;;;12.98;5.90;;;;;;;9.60;76.84;94152.97;5060377;28;20037;-77
2023/04/26 03:36:54;;;;;;;14.73;6.20;;;;;;;9.97;78.20;94222.75;5056378;28;20710;-77
2023/04/26 03:39:20;;;;;;;15.55;7.22;;;;;;;9.97;77.38;94212.94;5059358;28;20067;-77
2023/04/26 03:41:46;;;;;;;35.95;11.82;;;;;;;9.95;77.16;94251.38;5074256;28;20037;-77
2023/04/26 03:44:11;;;;;;;21.17;7.93;;;;;;;9.54;79.79;94225.59;5074620;28;20046;-78
2023/04/26 03:46:37;;;;;;;17.50;7.97;;;;;;;9.93;79.12;94242.94;5074186;28;20033;-77
2023/04/26 03:49:02;;;;;;;15.38;6.80;;;;;;;10.21;78.49;94257.84;5055144;28;20112;-77
2023/04/26 03:51:28;;;;;;;16.67;7.38;;;;;;;10.08;77.59;94229.44;5057251;28;20029;-78
2023/04/26 03:53:54;;;;;;;12.07;7.30;;;;;;;10.34;77.52;94266.88;5055273;28;20029;-77
2023/04/26 03:56:20;;;;;;;19.33;11.05;;;;;;;9.86;77.13;94218.69;5059101;28;20032;-77
2023/04/26 03:58:45;;;;;;;22.02;11.23;;;;;;;9.98;78.74;94259.56;5057630;28;20024;-77
2023/04/26 04:01:11;;;;;;;25.55;11.75;;;;;;;9.86;80.41;94279.63;5055260;28;20053;-78
2023/04/26 04:03:36;;;;;;;28.08;13.02;;;;;;;9.88;80.69;94270.31;5054612;28;20037;-78
2023/04/26 04:06:02;;;;;;;19.75;10.75;;;;;;;9.76;80.92;94235.56;5061517;28;20380;-78
2023/04/26 04:08:27;;;;;;;29.88;10.68;;;;;;;9.65;81.33;94260.63;5061389;28;20070;-81
2023/04/26 04:10:53;;;;;;;26.50;10.95;;;;;;;9.49;80.78;94212.44;5063866;28;20145;-80
2023/04/26 04:13:18;;;;;;;22.67;10.20;;;;;;;9.71;80.47;94250.75;5066211;28;20037;-80
2023/04/26 04:15:43;;;;;;;25.73;10.93;;;;;;;9.76;79.67;94251.47;5065499;28;20067;-80
2023/04/26 04:18:09;;;;;;;14.13;7.57;;;;;;;9.55;78.93;94253.63;5061744;28;20068;-78
2023/04/26 04:20:35;;;;;;;19.13;9.48;;;;;;;9.78;80.27;94278.41;5056281;28;20025;-79
2023/04/26 04:23:03;;;;;;;24.35;8.85;;;;;;;9.87;78.87;94294.44;5048083;28;20690;-79
2023/04/26 04:25:30;;;;;;;22.83;10.13;;;;;;;9.54;79.53;94248.63;5048858;28;20073;-78
2023/04/26 04:27:55;;;;;;;26.27;10.07;;;;;;;9.87;79.69;94278.53;5044497;28;20097;-78
2023/04/26 04:30:21;;;;;;;18.98;8.73;;;;;;;9.84;79.98;94287.84;5031883;28;20044;-78
2023/04/26 04:32:47;;;;;;;31.55;10.18;;;;;;;9.87;78.96;94244.13;5053251;28;20444;-79
2023/04/26 04:35:13;;;;;;;17.20;9.40;;;;;;;10.24;79.14;94285.63;5053548;28;20029;-79
2023/04/26 04:37:38;;;;;;;15.75;7.30;;;;;;;9.87;77.10;94265.31;5061192;28;20035;-79
2023/04/26 04:40:04;;;;;;;20.00;7.57;;;;;;;10.05;78.94;94309.50;5056535;28;20028;-78
2023/04/26 04:42:31;;;;;;;13.75;6.63;;;;;;;10.10;78.95;94300.66;5054181;28;20545;-79
2023/04/26 04:44:58;;;;;;;18.60;6.90;;;;;;;9.91;79.00;94263.66;5052261;28;20044;-78
2023/04/26 04:47:23;;;;;;;14.10;7.35;;;;;;;10.10;78.78;94256.41;5050985;28;20144;-79
2023/04/26 04:49:49;;;;;;;15.10;7.80;;;;;;;10.38;79.14;94300.44;5055649;28;20779;-79
2023/04/26 04:52:15;;;;;;;17.83;7.10;;;;;;;9.85;78.16;94235.66;5055299;28;20040;-79
2023/04/26 04:54:40;;;;;;;21.13;6.78;;;;;;;10.33;77.92;94292.59;5034308;28;20032;-79
2023/04/26 04:57:06;;;;;;;11.63;6.75;;;;;;;10.17;77.05;94301.91;5052215;28;20035;-80
2023/04/26 04:59:32;;;;;;;17.13;7.63;;;;;;;9.87;78.26;94265.31;5050406;28;20031;-78
2023/04/26 05:01:57;;;;;;;17.08;7.55;;;;;;;10.04;78.79;94268.97;5051574;28;20031;-79
2023/04/26 05:04:23;;;;;;;15.75;7.15;;;;;;;10.20;78.01;94311.13;5050373;28;20036;-81
2023/04/26 05:06:48;;;;;;;15.23;8.48;;;;;;;10.05;78.04;94253.88;5051961;28;20033;-82
2023/04/26 05:09:14;;;;;;;20.73;7.55;;;;;;;10.64;77.02;94299.97;5049415;28;20054;-79
2023/04/26 05:11:39;;;;;;;16.10;7.75;;;;;;;10.55;77.02;94299.09;5049422;28;20035;-77
2023/04/26 05:14:06;;;;;;;19.42;8.77;;;;;;;10.44;75.61;94298.50;5050103;28;20202;-79
2023/04/26 05:16:33;;;;;;;13.52;6.30;;;;;;;10.38;76.14;94297.00;5045657;28;20128;-81
2023/04/26 05:18:58;;;;;;;15.02;7.25;;;;;;;10.54;75.52;94300.97;5044893;28;20847;-80
2023/04/26 05:21:25;;;;;;;16.73;8.40;;;;;;;10.22;75.45;94293.84;5048236;28;20074;-80
2023/04/26 05:23:50;;;;;;;16.55;8.35;;;;;;;10.25;75.61;94261.47;5052241;28;20026;-81
2023/04/26 05:26:16;;;;;;;25.73;9.18;;;;;;;10.49;75.41;94271.91;5044934;28;20092;-80
2023/04/26 05:28:42;;;;;;;17.45;8.40;;;;;;;10.63;75.25;94283.28;5051515;28;20087;-81
2023/04/26 05:31:08;;;;;;;18.05;9.15;;;;;;;10.73;75.22;94279.66;5054516;28;20082;-80
2023/04/26 05:33:34;;;;;;;18.35;8.90;;;;;;;10.84;76.23;94307.53;5051532;28;20036;-79
2023/04/26 05:36:00;;;;;;;32.97;9.13;;;;;;;10.67;76.28;94283.50;5053076;28;20029;-80
2023/04/26 05:38:26;;;;;;;15.57;9.02;;;;;;;11.02;76.03;94319.91;5052666;28;20063;-80
2023/04/26 05:40:51;;;;;;;18.77;8.85;;;;;;;10.89;75.58;94280.94;5050282;28;20103;-81
2023/04/26 05:43:17;;;;;;;24.15;9.10;;;;;;;11.04;75.33;94293.88;5051514;28;20025;-79
2023/04/26 05:45:53;;;;;;;16.75;7.97;;;;;;;11.25;75.36;94319.97;5054114;28;20712;-79
2023/04/26 05:48:21;;;;;;;17.67;9.32;;;;;;;11.38;74.98;94321.81;5050421;28;20029;-81
2023/04/26 05:50:46;;;;;;;13.95;8.60;;;;;;;11.29;73.52;94318.31;5054847;28;20062;-79
2023/04/26 05:53:12;;;;;;;17.05;8.07;;;;;;;11.59;73.48;94326.38;5055331;28;20047;-79
2023/04/26 05:55:37;;;;;;;23.63;8.75;;;;;;;11.39;74.53;94329.47;5054980;28;20039;-80
2023/04/26 05:58:03;;;;;;;17.50;8.57;;;;;;;11.38;73.57;94309.31;5053643;28;20055;-80
2023/04/26 06:00:29;;;;;;;12.57;8.55;;;;;;;11.32;73.08;94286.63;5052969;28;20049;-80
2023/04/26 06:02:56;;;;;;;21.88;9.30;;;;;;;11.50;72.80;94303.50;5056736;28;20130;-84
2023/04/26 06:05:21;;;;;;;16.40;7.80;;;;;;;11.06;72.76;94254.53;5053131;28;20037;-82
2023/04/26 06:07:47;;;;;;;19.65;8.73;;;;;;;11.51;73.31;94329.75;5049350;28;20091;-82
2023/04/26 06:10:12;;;;;;;15.07;7.93;;;;;;;11.10;72.78;94299.84;5051601;28;20088;-80
2023/04/26 06:12:38;;;;;;;16.45;9.60;;;;;;;11.35;74.02;94323.22;5047536;28;20033;-80
2023/04/26 06:15:04;;;;;;;22.85;10.95;;;;;;;11.21;74.60;94317.16;5045582;28;20036;-80
2023/04/26 06:17:29;;;;;;;21.40;11.52;;;;;;;11.22;73.71;94295.59;5048921;28;20033;-81
2023/04/26 06:19:55;;;;;;;27.00;10.75;;;;;;;11.25;73.50;94282.81;5052595;28;20032;-82
2023/04/26 06:22:20;;;;;;;27.70;12.05;;;;;;;11.34;74.24;94318.19;5055522;28;20033;-80
2023/04/26 06:24:46;;;;;;;20.60;9.25;;;;;;;11.38;74.05;94309.31;5047624;28;20947;-81
2023/04/26 06:27:11;;;;;;;24.75;9.82;;;;;;;11.37;74.35;94329.00;5048644;28;20037;-81
2023/04/26 06:29:36;;;;;;;23.27;9.70;;;;;;;11.25;74.45;94290.78;5060822;28;20033;-81
2023/04/26 06:32:02;;;;;;;17.23;8.88;;;;;;;11.29;73.77;94310.34;5046192;28;20467;-78
2023/04/26 06:34:27;;;;;;;13.88;7.97;;;;;;;11.33;74.55;94324.59;5044842;28;20028;-78
2023/04/26 06:36:53;;;;;;;16.20;8.10;;;;;;;11.55;75.35;94319.31;5044431;28;20093;-80
2023/04/26 06:39:18;;;;;;;14.40;6.97;;;;;;;11.23;73.93;94320.28;5051080;28;20036;-79
2023/04/26 06:41:43;;;;;;;17.58;8.82;;;;;;;11.13;74.45;94313.31;5044898;28;20028;-80
2023/04/26 06:44:09;;;;;;;14.85;7.03;;;;;;;10.73;72.36;94295.56;5046512;28;20036;-79
2023/04/26 06:46:34;;;;;;;9.35;6.75;;;;;;;10.59;72.93;94270.94;5043785;28;20029;-78
2023/04/26 06:49:00;;;;;;;12.30;7.47;;;;;;;10.74;72.93;94302.44;5045930;28;20378;-78
2023/04/26 06:51:30;;;;;;;12.90;8.77;;;;;;;10.92;71.77;94329.94;5046376;28;20171;-83
2023/04/26 06:53:59;;;;;;;14.15;7.10;;;;;;;10.91;68.77;94312.47;5050522;28;20444;-79
2023/04/26 06:56:27;;;;;;;11.63;7.72;;;;;;;10.57;68.81;94331.41;5051738;28;20048;-84
2023/04/26 06:59:02;;;;;;;10.50;7.13;;;;;;;10.21;67.90;94257.84;5056636;28;20078;-82
2023/04/26 07:01:28;;;;;;;15.15;7.05;;;;;;;10.51;69.34;94325.41;5065140;28;20861;-84
2023/04/26 07:03:56;;;;;;;10.95;7.78;;;;;;;10.40;69.38;94318.72;5040249;28;20047;-78
2023/04/26 07:06:23;;;;;;;11.02;7.78;;;;;;;10.22;69.11;94311.63;5054829;28;20066;-80
2023/04/26 07:08:49;;;;;;;12.75;6.93;;;;;;;10.16;67.77;94312.75;5053292;28;20511;-83
2023/04/26 07:11:14;;;;;;;16.40;6.88;;;;;;;10.33;69.34;94344.81;5046129;28;20093;-79
2023/04/26 07:13:43;;;;;;;11.98;7.75;;;;;;;10.08;69.23;94304.38;5043417;28;20050;-79
2023/04/26 07:16:08;;;;;;;11.52;6.90;;;;;;;10.07;69.59;94313.41;5045410;28;20028;-79
2023/04/26 07:18:34;;;;;;;9.85;7.07;;;;;;;10.21;69.55;94334.69;5039975;28;20060;-78
2023/04/26 07:20:59;;;;;;;11.13;7.70;;;;;;;9.88;69.03;94311.91;5043536;28;20031;-80
2023/04/26 07:23:25;;;;;;;12.65;8.25;;;;;;;10.10;69.79;94330.59;5046287;28;20522;-79
2023/04/26 07:25:50;;;;;;;10.52;6.80;;;;;;;9.90;68.73;94317.69;5051560;28;20042;-78
2023/04/26 07:28:15;;;;;;;11.30;7.22;;;;;;;10.00;68.87;94318.31;5051029;28;20060;-79
2023/04/26 07:30:41;;;;;;;10.30;7.03;;;;;;;9.95;67.89;94315.75;5046720;28;20637;-78
2023/04/26 07:33:06;;;;;;;11.98;7.43;;;;;;;10.24;68.25;94335.97;5046128;28;20707;-79
2023/04/26 07:35:34;;;;;;;10.27;7.40;;;;;;;10.18;67.92;94319.38;5046686;28;20408;-78
2023/04/26 07:37:59;;;;;;;10.85;7.90;;;;;;;10.08;67.13;94322.94;5046635;28;20570;-78
2023/04/26 07:40:25;;;;;;;11.27;7.63;;;;;;;10.32;68.06;94336.06;5047429;28;20036;-78
2023/04/26 07:42:52;;;;;;;13.48;7.82;;;;;;;10.43;66.64;94357.91;5062380;28;20029;-79
2023/04/26 07:45:18;;;;;;;10.82;6.65;;;;;;;10.29;66.22;94339.34;5048858;28;20464;-79
2023/04/26 07:47:44;;;;;;;11.40;6.40;;;;;;;10.42;66.50;94343.06;5047472;28;20060;-79
2023/04/26 07:50:10;;;;;;;8.85;7.20;;;;;;;10.31;66.84;94333.72;5046828;28;20155;-78
2023/04/26 07:52:35;;;;;;;10.07;6.00;;;;;;;10.43;65.46;94342.78;5055463;28;20032;-79
2023/04/26 07:55:01;;;;;;;8.70;6.32;;;;;;;10.66;64.22;94364.91;5048482;28;20380;-83
2023/04/26 07:57:26;;;;;;;9.93;6.40;;;;;;;10.19;63.04;94291.81;5044364;28;20560;-82
2023/04/26 07:59:52;;;;;;;10.43;6.68;;;;;;;10.25;62.63;94295.94;5047499;28;20036;-80
2023/04/26 08:02:17;;;;;;;11.55;6.57;;;;;;;10.27;62.41;94322.13;5049621;28;20040;-79
2023/04/26 08:04:55;;;;;;;11.35;7.03;;;;;;;10.72;63.14;94366.38;5048815;28;20059;-79
2023/04/26 08:07:23;;;;;;;10.35;7.07;;;;;;;10.70;62.98;94330.63;5047195;28;20040;-80
2023/04/26 08:09:49;;;;;;;13.90;7.75;;;;;;;10.75;62.56;94381.72;5047087;28;20858;-79
2023/04/26 08:12:15;;;;;;;14.85;6.60;;;;;;;10.78;62.32;94375.81;5047804;28;20730;-79
2023/04/26 08:14:40;;;;;;;12.73;6.80;;;;;;;10.62;62.70;94342.69;5055189;28;20406;-79
2023/04/26 08:17:11;;;;;;;13.40;6.70;;;;;;;10.77;62.21;94354.88;5047732;28;20040;-78
2023/04/26 08:19:36;;;;;;;12.80;7.50;;;;;;;10.76;62.64;94366.56;5045841;28;20106;-79
2023/04/26 08:22:02;;;;;;;16.05;7.32;;;;;;;10.20;63.41;94311.13;5046814;28;20032;-79
2023/04/26 08:24:31;;;;;;;12.45;7.68;;;;;;;10.87;63.68;94348.59;5053815;28;20098;-80
2023/04/26 08:26:57;;;;;;;13.52;7.20;;;;;;;10.90;62.30;94359.44;5048918;28;20427;-79
2023/04/26 08:29:26;;;;;;;13.32;8.23;;;;;;;11.18;63.27;94352.22;5049695;28;20028;-79
2023/04/26 08:31:52;;;;;;;12.88;6.60;;;;;;;11.22;62.87;94340.72;5048463;28;20427;-80
2023/04/26 08:34:17;;;;;;;10.88;7.30;;;;;;;10.46;61.15;94227.41;5051442;28;20020;-79
2023/04/26 08:36:44;;;;;;;12.82;6.75;;;;;;;11.08;61.04;94302.81;5044366;28;20448;-78
2023/04/26 08:39:11;;;;;;;8.88;6.15;;;;;;;11.24;61.49;94345.72;5048934;28;20033;-78
2023/04/26 08:41:48;;;;;;;12.15;6.45;;;;;;;11.25;60.65;94354.47;5048995;28;20398;-79
2023/04/26 08:44:14;;;;;;;9.98;6.00;;;;;;;11.28;60.38;94372.47;5047761;28;20090;-80
2023/04/26 08:46:42;;;;;;;10.57;5.20;;;;;;;11.03;60.46;94369.25;5046961;28;20029;-80
2023/04/26 08:49:46;;;;;;;8.88;5.38;;;;;;;11.21;61.38;94349.00;5050097;28;20039;-84
2023/04/26 08:52:21;;;;;;;7.97;4.97;;;;;;;10.96;60.06;94341.53;5041831;28;20044;-78
2023/04/26 08:54:48;;;;;;;8.85;5.65;;;;;;;11.36;59.95;94377.88;5046788;28;20041;-79
2023/04/26 08:57:14;;;;;;;9.65;5.15;;;;;;;11.35;59.35;94360.38;5044730;28;20377;-79
2023/04/26 08:59:42;;;;;;;8.80;5.03;;;;;;;11.53;59.13;94366.63;5047342;28;20032;-80
2023/04/26 09:02:13;;;;;;;7.75;5.05;;;;;;;11.57;59.27;94365.75;5049218;28;20074;-79
2023/04/26 09:04:39;;;;;;;14.55;4.70;;;;;;;11.52;58.95;94328.66;5048160;28;20768;-80
2023/04/26 09:07:06;;;;;;;6.85;4.93;;;;;;;11.61;58.25;94356.06;5052486;28;20672;-81
2023/04/26 09:09:40;;;;;;;6.60;5.07;;;;;;;11.49;58.24;94345.19;5042076;28;20136;-79
2023/04/26 09:12:06;;;;;;;6.70;4.68;;;;;;;11.83;57.84;94367.84;5045894;28;20471;-80
2023/04/26 09:14:32;;;;;;;8.15;4.20;;;;;;;11.54;58.07;94336.34;5052049;28;20028;-78
2023/04/26 09:16:57;;;;;;;8.00;4.88;;;;;;;11.57;58.07;94352.47;5047986;28;20117;-79
2023/04/26 09:19:37;;;;;;;8.48;4.68;;;;;;;11.86;57.42;94346.00;5052677;28;20051;-79
2023/04/26 09:22:03;;;;;;;7.20;4.15;;;;;;;12.08;56.21;94377.13;5045820;28;20587;-79
2023/04/26 09:24:51;;;;;;;5.90;4.45;;;;;;;12.01;56.21;94369.56;5051075;28;20069;-79
2023/04/26 09:27:17;;;;;;;9.25;4.40;;;;;;;12.25;56.11;94374.59;5050098;28;20468;-80
2023/04/26 09:30:04;;;;;;;8.90;3.80;;;;;;;12.25;55.44;94369.25;5043840;28;20029;-81
2023/04/26 09:33:08;;;;;;;6.03;4.00;;;;;;;12.23;54.40;94372.22;5043310;28;20444;-78
2023/04/26 09:35:38;;;;;;;6.57;4.50;;;;;;;12.17;54.58;94336.22;4952014;28;20038;-80
2023/04/26 09:38:04;;;;;;;8.95;3.63;;;;;;;12.38;54.25;94369.19;4938864;28;20074;-79
2023/04/26 09:40:31;;;;;;;7.65;4.30;;;;;;;12.38;54.24;94376.38;5007040;28;20041;-79
2023/04/26 09:43:08;;;;;;;9.45;4.15;;;;;;;12.30;54.30;94369.13;5043465;28;20043;-79
2023/04/26 09:45:56;;;;;;;8.85;3.65;;;;;;;12.12;54.53;94370.13;5047314;28;20105;-79
2023/04/26 09:48:29;;;;;;;4.93;4.00;;;;;;;11.80;54.38;94260.34;5053500;28;20036;-79
2023/04/26 09:50:56;;;;;;;5.10;3.47;;;;;;;12.36;53.51;94362.59;5049859;28;20033;-79
2023/04/26 09:53:38;;;;;;;3.95;3.28;;;;;;;12.37;52.74;94338.38;5046537;28;20036;-79
2023/04/26 09:56:14;;;;;;;6.00;3.50;;;;;;;12.32;52.41;94303.94;5052511;28;20123;-82
2023/04/26 09:58:46;;;;;;;10.93;3.53;;;;;;;12.84;51.59;94359.25;5053312;28;20039;-82
2023/04/26 10:01:13;;;;;;;6.70;3.50;;;;;;;12.86;51.39;94357.06;5048289;28;20039;-84
2023/04/26 10:03:41;;;;;;;5.70;3.28;;;;;;;12.74;50.52;94321.19;5046406;28;20032;-84
2023/04/26 10:06:07;;;;;;;9.95;4.30;;;;;;;12.29;50.43;94229.31;5053754;28;20039;-81
2023/04/26 10:08:32;;;;;;;4.30;2.92;;;;;;;13.49;50.46;94340.69;5050328;28;20443;-80
2023/04/26 10:11:03;;;;;;;5.68;3.10;;;;;;;13.64;49.00;94358.88;5048229;28;20091;-81
2023/04/26 10:13:31;;;;;;;5.88;2.50;;;;;;;13.49;48.57;94330.81;5036822;28;20143;-80
2023/04/26 10:15:58;;;;;;;5.55;2.65;;;;;;;13.70;48.50;94346.19;5056390;28;20411;-78
2023/04/26 10:18:24;;;;;;;5.22;2.28;;;;;;;12.95;46.69;94228.28;5050620;28;20036;-77
2023/04/26 10:20:52;;;;;;;7.22;2.47;;;;;;;13.70;47.23;94341.66;5052557;28;20039;-82
2023/04/26 10:23:21;;;;;;;4.72;1.80;;;;;;;13.63;46.67;94344.00;5049298;28;20045;-77
2023/04/26 10:25:47;;;;;;;3.75;2.33;;;;;;;13.49;46.17;94317.50;5046374;28;20041;-81
2023/04/26 10:28:13;;;;;;;4.60;1.92;;;;;;;13.37;45.97;94322.63;5054993;28;20034;-77
2023/04/26 10:30:56;;;;;;;6.55;2.78;;;;;;;13.44;46.28;94330.16;5048270;28;20036;-77
2023/04/26 10:33:24;;;;;;;4.15;2.30;;;;;;;13.91;46.16;94341.78;5042661;28;20044;-77
2023/04/26 10:36:04;;;;;;;4.07;1.90;;;;;;;13.68;45.81;94349.16;5046882;28;20419;-77
2023/04/26 10:38:31;;;;;;;2.78;2.00;;;;;;;13.57;46.68;94326.59;5048115;28;20060;-78
2023/04/26 10:41:31;;;;;;;6.55;2.63;;;;;;;13.61;47.17;94343.50;5046317;28;20108;-76
2023/04/26 10:43:58;;;;;;;5.75;2.17;;;;;;;13.38;45.11;94296.78;5047490;28;20020;-77
2023/04/26 10:46:37;;;;;;;3.75;2.15;;;;;;;13.67;45.24;94342.25;5049062;28;20582;-78
2023/04/26 10:49:21;;;;;;;3.05;2.03;;;;;;;13.34;45.23;94330.47;5053487;28;20046;-77
2023/04/26 10:52:10;;;;;;;5.63;2.05;;;;;;;13.69;44.43;94337.41;5052601;28;20033;-77
2023/04/26 10:54:52;;;;;;;2.85;1.63;;;;;;;13.63;43.42;94328.00;5054921;28;20028;-78
2023/04/26 10:57:18;;;;;;;6.40;2.20;;;;;;;13.53;44.34;94312.31;5057319;28;20025;-77
2023/04/26 11:00:11;;;;;;;6.40;2.25;;;;;;;13.66;43.88;94337.22;5052886;28;20033;-78
2023/04/26 11:02:56;;;;;;;2.70;1.67;;;;;;;13.41;43.90;94325.47;5045449;28;20028;-78
2023/04/26 11:05:53;;;;;;;3.95;1.48;;;;;;;13.53;43.93;94350.41;5048909;28;20029;-78
2023/04/26 11:08:30;;;;;;;2.95;1.98;;;;;;;13.30;44.27;94327.63;5047380;28;20044;-77
2023/04/26 11:11:02;;;;;;;2.42;1.63;;;;;;;13.51;44.05;94347.25;5042856;28;20945;-78
2023/04/26 11:13:30;;;;;;;;;;;;;;;13.32;44.09;94348.63;5047363;28;20033;-78
2023/04/26 11:16:03;;;;;;;3.97;2.30;;;;;;;13.45;44.80;94316.53;5051257;28;20480;-81
2023/04/26 11:18:29;;;;;;;3.90;1.63;;;;;;;13.11;44.71;94250.69;5051084;28;20037;-78
2023/04/26 11:20:56;;;;;;;5.30;2.30;;;;;;;13.69;44.11;94339.28;5048789;28;20128;-77
2023/04/26 11:23:22;;;;;;;2.20;1.80;;;;;;;13.23;43.62;94267.94;5043306;28;20035;-77
2023/04/26 11:25:48;;;;;;;4.43;2.05;;;;;;;14.15;42.79;94319.97;5052290;28;20142;-78
2023/04/26 11:28:14;;;;;;;2.97;1.80;;;;;;;14.64;42.99;94366.69;5046473;28;20040;-79